sensor_id;sensor_type;location;lat;lon;timestamp;pressure;altitude;pressure_sealevel;temperature;humidity
56632;BME280;42503;39.928;-75.152;2022-07-23T00:00:32;101155.56;;;33.07;40.27
56632;BME280;42503;39.928;-75.152;2022-07-23T00:02:37;101158.75;;;33.05;40.25
56632;BME280;42503;39.928;-75.152;2022-07-23T00:04:38;101165.25;;;33.06;40.54
56632;BME280;42503;39.928;-75.152;2022-07-23T00:06:42;101165.25;;;33.06;40.32
56632;BME280;42503;39.928;-75.152;2022-07-23T00:08:44;101163.59;;;33.05;40.08
56632;BME280;42503;39.928;-75.152;2022-07-23T00:10:45;101163.59;;;33.05;40.25
56632;BME280;42503;39.928;-75.152;2022-07-23T00:12:46;101162.78;;;33.04;40.22
56632;BME280;42503;39.928;-75.152;2022-07-23T00:14:48;101153.69;;;32.99;40.16
56632;BME280;42503;39.928;-75.152;2022-07-23T00:16:49;101169.28;;;33.05;40.29
56632;BME280;42503;39.928;-75.152;2022-07-23T00:18:50;101169.28;;;33.05;40.54
56632;BME280;42503;39.928;-75.152;2022-07-23T00:20:52;101169.28;;;33.05;40.31
56632;BME280;42503;39.928;-75.152;2022-07-23T00:22:56;101170.47;;;33.04;40.30
56632;BME280;42503;39.928;-75.152;2022-07-23T00:24:57;101170.47;;;33.04;40.43
56632;BME280;42503;39.928;-75.152;2022-07-23T00:26:58;101178.13;;;33.03;40.60
56632;BME280;42503;39.928;-75.152;2022-07-23T00:29:00;101177.31;;;33.03;40.74
56632;BME280;42503;39.928;-75.152;2022-07-23T00:31:04;101178.97;;;33.04;40.49
56632;BME280;42503;39.928;-75.152;2022-07-23T00:33:08;101178.97;;;33.04;40.69
56632;BME280;42503;39.928;-75.152;2022-07-23T00:35:09;101185.47;;;33.04;40.57
56632;BME280;42503;39.928;-75.152;2022-07-23T00:37:10;101180.63;;;33.05;40.57
56632;BME280;42503;39.928;-75.152;2022-07-23T00:39:12;101183.44;;;33.05;40.45
56632;BME280;42503;39.928;-75.152;2022-07-23T00:41:13;101178.97;;;33.04;40.69
56632;BME280;42503;39.928;-75.152;2022-07-23T00:43:20;101195.13;;;33.03;40.80
56632;BME280;42503;39.928;-75.152;2022-07-23T00:45:21;101175.91;;;32.97;40.58
56632;BME280;42503;39.928;-75.152;2022-07-23T00:47:26;101183.78;;;33.03;40.81
56632;BME280;42503;39.928;-75.152;2022-07-23T00:49:29;101190.31;;;33.04;40.67
56632;BME280;42503;39.928;-75.152;2022-07-23T00:51:31;101202.47;;;33.04;40.86
56632;BME280;42503;39.928;-75.152;2022-07-23T00:53:32;101210.97;;;33.04;40.78
56632;BME280;42503;39.928;-75.152;2022-07-23T00:55:34;101206.47;;;33.03;40.99
56632;BME280;42503;39.928;-75.152;2022-07-23T00:57:36;101205.66;;;33.03;40.91
56632;BME280;42503;39.928;-75.152;2022-07-23T00:59:40;101207.31;;;33.04;40.73
56632;BME280;42503;39.928;-75.152;2022-07-23T01:01:41;101211.31;;;33.03;41.07
56632;BME280;42503;39.928;-75.152;2022-07-23T01:03:44;101213.00;;;33.04;41.10
56632;BME280;42503;39.928;-75.152;2022-07-23T01:05:48;101193.28;;;32.95;41.30
56632;BME280;42503;39.928;-75.152;2022-07-23T01:07:51;101215.34;;;33.02;40.86
56632;BME280;42503;39.928;-75.152;2022-07-23T01:09:55;101225.16;;;33.04;41.07
56632;BME280;42503;39.928;-75.152;2022-07-23T01:11:57;101222.66;;;33.03;40.60
56632;BME280;42503;39.928;-75.152;2022-07-23T01:13:59;101219.13;;;33.06;40.67
56632;BME280;42503;39.928;-75.152;2022-07-23T01:16:08;101221.13;;;33.05;41.11
56632;BME280;42503;39.928;-75.152;2022-07-23T01:18:09;101231.28;;;33.06;41.10
56632;BME280;42503;39.928;-75.152;2022-07-23T01:20:11;101212.31;;;32.95;41.24
56632;BME280;42503;39.928;-75.152;2022-07-23T01:22:14;101234.50;;;33.05;41.26
56632;BME280;42503;39.928;-75.152;2022-07-23T01:24:16;101239.34;;;33.04;40.97
56632;BME280;42503;39.928;-75.152;2022-07-23T01:26:20;101247.00;;;33.04;41.18
56632;BME280;42503;39.928;-75.152;2022-07-23T01:28:23;101241.34;;;33.04;41.19
56632;BME280;42503;39.928;-75.152;2022-07-23T01:30:25;101244.19;;;33.04;41.26
56632;BME280;42503;39.928;-75.152;2022-07-23T01:32:26;101248.91;;;33.00;41.07
56632;BME280;42503;39.928;-75.152;2022-07-23T01:34:27;101255.84;;;33.02;41.14
56632;BME280;42503;39.928;-75.152;2022-07-23T01:36:29;101251.84;;;33.03;41.17
56632;BME280;42503;39.928;-75.152;2022-07-23T01:38:33;101257.50;;;33.03;41.38
56632;BME280;42503;39.928;-75.152;2022-07-23T01:40:34;101256.69;;;33.03;41.50
56632;BME280;42503;39.928;-75.152;2022-07-23T01:42:38;101261.53;;;33.02;41.42
56632;BME280;42503;39.928;-75.152;2022-07-23T01:44:39;101262.34;;;33.03;41.19
56632;BME280;42503;39.928;-75.152;2022-07-23T01:46:41;101259.50;;;33.03;41.44
56632;BME280;42503;39.928;-75.152;2022-07-23T01:48:45;101262.34;;;33.03;41.32
56632;BME280;42503;39.928;-75.152;2022-07-23T01:50:47;101264.03;;;33.04;41.49
56632;BME280;42503;39.928;-75.152;2022-07-23T01:52:48;101257.50;;;33.03;41.45
56632;BME280;42503;39.928;-75.152;2022-07-23T01:54:50;101262.34;;;33.03;41.36
56632;BME280;42503;39.928;-75.152;2022-07-23T01:56:54;101261.53;;;33.02;41.39
56632;BME280;42503;39.928;-75.152;2022-07-23T01:58:55;101262.34;;;33.03;41.63
56632;BME280;42503;39.928;-75.152;2022-07-23T02:01:00;101259.50;;;33.03;41.41
56632;BME280;42503;39.928;-75.152;2022-07-23T02:03:01;101275.38;;;33.04;41.62
56632;BME280;42503;39.928;-75.152;2022-07-23T02:05:03;101271.69;;;33.03;41.53
56632;BME280;42503;39.928;-75.152;2022-07-23T02:07:05;101273.69;;;33.03;41.72
56632;BME280;42503;39.928;-75.152;2022-07-23T02:09:07;101283.38;;;33.02;41.80
56632;BME280;42503;39.928;-75.152;2022-07-23T02:11:08;101274.31;;;32.96;41.46
56632;BME280;42503;39.928;-75.152;2022-07-23T02:13:09;101279.38;;;33.03;41.56
56632;BME280;42503;39.928;-75.152;2022-07-23T02:15:11;101283.38;;;33.02;41.73
56632;BME280;42503;39.928;-75.152;2022-07-23T02:17:15;101285.03;;;33.03;41.82
56632;BME280;42503;39.928;-75.152;2022-07-23T02:19:16;101284.56;;;33.01;41.61
56632;BME280;42503;39.928;-75.152;2022-07-23T02:21:17;101282.94;;;33.00;41.64
56632;BME280;42503;39.928;-75.152;2022-07-23T02:23:22;101283.38;;;33.02;41.63
56632;BME280;42503;39.928;-75.152;2022-07-23T02:25:23;101282.56;;;33.01;41.66
56632;BME280;42503;39.928;-75.152;2022-07-23T02:27:24;101286.47;;;32.97;41.63
56632;BME280;42503;39.928;-75.152;2022-07-23T02:29:26;101295.53;;;33.02;41.79
56632;BME280;42503;39.928;-75.152;2022-07-23T02:31:28;101296.38;;;33.03;42.05
56632;BME280;42503;39.928;-75.152;2022-07-23T02:33:30;101296.38;;;33.03;41.98
56632;BME280;42503;39.928;-75.152;2022-07-23T02:35:31;101296.28;;;32.99;41.99
56632;BME280;42503;39.928;-75.152;2022-07-23T02:37:33;101301.59;;;33.01;41.63
56632;BME280;42503;39.928;-75.152;2022-07-23T02:39:35;101302.03;;;33.03;41.98
56632;BME280;42503;39.928;-75.152;2022-07-23T02:41:37;101304.88;;;33.03;41.77
56632;BME280;42503;39.928;-75.152;2022-07-23T02:43:38;101296.38;;;33.03;41.89
56632;BME280;42503;39.928;-75.152;2022-07-23T02:45:40;101302.03;;;33.03;41.98
56632;BME280;42503;39.928;-75.152;2022-07-23T02:47:41;101306.06;;;33.02;42.11
56632;BME280;42503;39.928;-75.152;2022-07-23T02:49:42;101298.63;;;32.97;41.92
56632;BME280;42503;39.928;-75.152;2022-07-23T02:51:43;101290.50;;;32.96;41.89
56632;BME280;42503;39.928;-75.152;2022-07-23T02:53:47;101302.03;;;33.03;42.06
56632;BME280;42503;39.928;-75.152;2022-07-23T02:55:54;101293.78;;;32.98;41.83
56632;BME280;42503;39.928;-75.152;2022-07-23T02:57:55;101302.88;;;33.03;42.09
56632;BME280;42503;39.928;-75.152;2022-07-23T02:59:59;101310.22;;;33.04;41.91
56632;BME280;42503;39.928;-75.152;2022-07-23T03:02:02;101309.38;;;33.04;41.88
56632;BME280;42503;39.928;-75.152;2022-07-23T03:04:04;101307.72;;;33.03;42.13
56632;BME280;42503;39.928;-75.152;2022-07-23T03:06:05;101303.72;;;33.04;42.13
56632;BME280;42503;39.928;-75.152;2022-07-23T03:08:12;101307.38;;;33.04;42.10
56632;BME280;42503;39.928;-75.152;2022-07-23T03:10:14;101305.69;;;33.03;42.17
56632;BME280;42503;39.928;-75.152;2022-07-23T03:12:18;101303.59;;;33.00;41.98
56632;BME280;42503;39.928;-75.152;2022-07-23T03:14:19;101298.03;;;33.04;42.30
56632;BME280;42503;39.928;-75.152;2022-07-23T03:16:20;101309.38;;;33.04;42.12
56632;BME280;42503;39.928;-75.152;2022-07-23T03:18:24;101306.56;;;33.04;42.44
56632;BME280;42503;39.928;-75.152;2022-07-23T03:20:26;101303.72;;;33.04;42.15
56632;BME280;42503;39.928;-75.152;2022-07-23T03:22:30;101303.72;;;33.04;42.35
56632;BME280;42503;39.928;-75.152;2022-07-23T03:24:31;101309.38;;;33.04;42.10
56632;BME280;42503;39.928;-75.152;2022-07-23T03:26:51;101299.22;;;33.03;42.10
56632;BME280;42503;39.928;-75.152;2022-07-23T03:28:52;101298.03;;;33.04;42.09
56632;BME280;42503;39.928;-75.152;2022-07-23T03:30:54;101300.88;;;33.04;42.28
56632;BME280;42503;39.928;-75.152;2022-07-23T03:32:55;101302.03;;;33.03;42.31
56632;BME280;42503;39.928;-75.152;2022-07-23T03:34:56;101289.31;;;32.97;42.36
56632;BME280;42503;39.928;-75.152;2022-07-23T03:37:00;101306.06;;;33.02;42.19
56632;BME280;42503;39.928;-75.152;2022-07-23T03:39:02;101304.88;;;33.03;42.45
56632;BME280;42503;39.928;-75.152;2022-07-23T03:41:09;101300.41;;;33.02;42.47
56632;BME280;42503;39.928;-75.152;2022-07-23T03:43:11;101302.03;;;33.03;42.36
56632;BME280;42503;39.928;-75.152;2022-07-23T03:45:12;101302.03;;;33.03;42.35
56632;BME280;42503;39.928;-75.152;2022-07-23T03:47:13;101299.22;;;33.03;42.35
56632;BME280;42503;39.928;-75.152;2022-07-23T03:49:18;101297.19;;;33.03;42.36
56632;BME280;42503;39.928;-75.152;2022-07-23T03:51:28;101296.38;;;33.03;42.38
56632;BME280;42503;39.928;-75.152;2022-07-23T03:53:30;101277.22;;;32.87;42.37
56632;BME280;42503;39.928;-75.152;2022-07-23T03:55:31;101307.72;;;33.03;42.77
56632;BME280;42503;39.928;-75.152;2022-07-23T03:57:32;101306.06;;;33.02;42.58
56632;BME280;42503;39.928;-75.152;2022-07-23T03:59:34;101309.72;;;33.02;42.36
56632;BME280;42503;39.928;-75.152;2022-07-23T04:01:38;101304.41;;;33.01;42.56
56632;BME280;42503;39.928;-75.152;2022-07-23T04:03:39;101300.41;;;33.02;42.71
56632;BME280;42503;39.928;-75.152;2022-07-23T04:05:46;101303.09;;;32.98;42.63
56632;BME280;42503;39.928;-75.152;2022-07-23T04:07:50;101303.22;;;33.02;42.72
56632;BME280;42503;39.928;-75.152;2022-07-23T04:09:51;101304.06;;;33.02;42.49
56632;BME280;42503;39.928;-75.152;2022-07-23T04:11:53;101305.25;;;33.01;42.51
56632;BME280;42503;39.928;-75.152;2022-07-23T04:13:54;101306.88;;;33.02;42.55
56632;BME280;42503;39.928;-75.152;2022-07-23T04:15:55;101301.59;;;33.01;42.65
56632;BME280;42503;39.928;-75.152;2022-07-23T04:17:57;101306.06;;;33.02;42.60
56632;BME280;42503;39.928;-75.152;2022-07-23T04:19:58;101311.72;;;33.02;42.82
56632;BME280;42503;39.928;-75.152;2022-07-23T04:22:00;101311.72;;;33.02;42.63
56632;BME280;42503;39.928;-75.152;2022-07-23T04:24:01;101320.25;;;33.02;42.60
56632;BME280;42503;39.928;-75.152;2022-07-23T04:26:03;101323.06;;;33.02;42.65
56632;BME280;42503;39.928;-75.152;2022-07-23T04:28:04;101327.09;;;33.01;42.85
56632;BME280;42503;39.928;-75.152;2022-07-23T04:30:06;101312.44;;;32.99;42.70
56632;BME280;42503;39.928;-75.152;2022-07-23T04:32:10;101314.13;;;33.00;42.89
56632;BME280;42503;39.928;-75.152;2022-07-23T04:34:11;101323.06;;;33.02;42.63
56632;BME280;42503;39.928;-75.152;2022-07-23T04:36:13;101323.06;;;33.02;42.76
56632;BME280;42503;39.928;-75.152;2022-07-23T04:38:14;101328.75;;;33.02;42.77
56632;BME280;42503;39.928;-75.152;2022-07-23T04:40:15;101315.75;;;33.01;42.90
56632;BME280;42503;39.928;-75.152;2022-07-23T04:42:17;101321.06;;;33.02;42.82
56632;BME280;42503;39.928;-75.152;2022-07-23T04:44:18;101327.56;;;33.03;42.85
56632;BME280;42503;39.928;-75.152;2022-07-23T04:46:19;101328.75;;;33.02;43.01
56632;BME280;42503;39.928;-75.152;2022-07-23T04:48:21;101323.06;;;33.02;42.83
56632;BME280;42503;39.928;-75.152;2022-07-23T04:50:25;101321.88;;;33.03;42.91
56632;BME280;42503;39.928;-75.152;2022-07-23T04:52:29;101330.41;;;33.03;42.96
56632;BME280;42503;39.928;-75.152;2022-07-23T04:54:33;101316.94;;;33.00;43.05
56632;BME280;42503;39.928;-75.152;2022-07-23T04:56:35;101322.72;;;33.03;42.84
56632;BME280;42503;39.928;-75.152;2022-07-23T04:58:39;101328.75;;;33.02;42.81
56632;BME280;42503;39.928;-75.152;2022-07-23T05:00:40;101326.72;;;33.02;42.71
56632;BME280;42503;39.928;-75.152;2022-07-23T05:02:41;101330.41;;;33.03;43.18
56632;BME280;42503;39.928;-75.152;2022-07-23T05:04:46;101329.56;;;33.02;43.38
56632;BME280;42503;39.928;-75.152;2022-07-23T05:06:47;101334.41;;;33.02;42.97
56632;BME280;42503;39.928;-75.152;2022-07-23T05:08:51;101332.78;;;33.01;43.18
56632;BME280;42503;39.928;-75.152;2022-07-23T05:10:52;101333.59;;;33.01;43.22
56632;BME280;42503;39.928;-75.152;2022-07-23T05:12:56;101338.44;;;33.01;43.24
56632;BME280;42503;39.928;-75.152;2022-07-23T05:14:58;101321.66;;;32.96;43.25
56632;BME280;42503;39.928;-75.152;2022-07-23T05:17:00;101327.09;;;33.01;43.12
56632;BME280;42503;39.928;-75.152;2022-07-23T05:19:01;101324.50;;;32.96;43.86
56632;BME280;42503;39.928;-75.152;2022-07-23T05:21:02;101311.69;;;32.89;43.34
56632;BME280;42503;39.928;-75.152;2022-07-23T05:23:04;101333.59;;;33.01;43.45
56632;BME280;42503;39.928;-75.152;2022-07-23T05:25:06;101334.41;;;33.02;43.30
56632;BME280;42503;39.928;-75.152;2022-07-23T05:27:08;101337.25;;;33.02;43.25
56632;BME280;42503;39.928;-75.152;2022-07-23T05:29:09;101335.59;;;33.01;43.28
56632;BME280;42503;39.928;-75.152;2022-07-23T05:31:10;101339.25;;;33.01;43.37
56632;BME280;42503;39.928;-75.152;2022-07-23T05:33:12;101338.44;;;33.01;43.11
56632;BME280;42503;39.928;-75.152;2022-07-23T05:35:16;101336.78;;;33.00;43.24
56632;BME280;42503;39.928;-75.152;2022-07-23T05:37:17;101344.13;;;33.01;43.84
56632;BME280;42503;39.928;-75.152;2022-07-23T05:39:19;101332.53;;;32.94;43.62
56632;BME280;42503;39.928;-75.152;2022-07-23T05:41:20;101337.94;;;32.99;43.38
56632;BME280;42503;39.928;-75.152;2022-07-23T05:43:21;101339.63;;;33.00;43.41
56632;BME280;42503;39.928;-75.152;2022-07-23T05:45:22;101335.97;;;32.99;43.59
56632;BME280;42503;39.928;-75.152;2022-07-23T05:47:24;101325.34;;;32.96;43.77
56632;BME280;42503;39.928;-75.152;2022-07-23T05:49:28;101335.13;;;32.99;43.50
56632;BME280;42503;39.928;-75.152;2022-07-23T05:51:29;101335.13;;;32.99;43.51
56632;BME280;42503;39.928;-75.152;2022-07-23T05:53:31;101333.47;;;32.98;43.56
56632;BME280;42503;39.928;-75.152;2022-07-23T05:55:34;101334.28;;;32.98;43.77
56632;BME280;42503;39.928;-75.152;2022-07-23T05:57:39;101334.28;;;32.98;43.77
56632;BME280;42503;39.928;-75.152;2022-07-23T05:59:40;101329.44;;;32.99;43.63
56632;BME280;42503;39.928;-75.152;2022-07-23T06:01:42;101331.47;;;32.98;43.53
56632;BME280;42503;39.928;-75.152;2022-07-23T06:03:43;101329.44;;;32.99;44.21
56632;BME280;42503;39.928;-75.152;2022-07-23T06:05:44;101326.97;;;32.97;43.39
56632;BME280;42503;39.928;-75.152;2022-07-23T06:07:46;101330.19;;;32.96;43.80
56632;BME280;42503;39.928;-75.152;2022-07-23T06:09:47;101331.81;;;32.97;43.77
56632;BME280;42503;39.928;-75.152;2022-07-23T06:11:50;101323.91;;;32.90;43.84
56632;BME280;42503;39.928;-75.152;2022-07-23T06:13:54;101334.66;;;32.97;43.91
56632;BME280;42503;39.928;-75.152;2022-07-23T06:15:58;101331.81;;;32.97;43.87
56632;BME280;42503;39.928;-75.152;2022-07-23T06:18:02;101339.13;;;32.98;43.62
56632;BME280;42503;39.928;-75.152;2022-07-23T06:20:07;101327.59;;;32.91;44.08
56632;BME280;42503;39.928;-75.152;2022-07-23T06:22:08;101325.88;;;32.89;43.63
56632;BME280;42503;39.928;-75.152;2022-07-23T06:24:10;101330.19;;;32.96;44.30
56632;BME280;42503;39.928;-75.152;2022-07-23T06:26:11;101335.84;;;32.96;44.45
56632;BME280;42503;39.928;-75.152;2022-07-23T06:28:13;101342.34;;;32.96;44.62
56632;BME280;42503;39.928;-75.152;2022-07-23T06:30:14;101338.69;;;32.96;43.85
56632;BME280;42503;39.928;-75.152;2022-07-23T06:32:20;101325.88;;;32.89;44.09
56632;BME280;42503;39.928;-75.152;2022-07-23T06:34:24;101343.16;;;32.97;44.58
56632;BME280;42503;39.928;-75.152;2022-07-23T06:36:26;101345.19;;;32.96;44.65
56632;BME280;42503;39.928;-75.152;2022-07-23T06:38:27;101340.69;;;32.95;44.63
56632;BME280;42503;39.928;-75.152;2022-07-23T06:40:29;101345.53;;;32.95;45.04
56632;BME280;42503;39.928;-75.152;2022-07-23T06:42:32;101330.41;;;32.91;45.00
56632;BME280;42503;39.928;-75.152;2022-07-23T06:44:34;101337.03;;;32.95;44.83
56632;BME280;42503;39.928;-75.152;2022-07-23T06:46:35;101334.19;;;32.95;44.43
56632;BME280;42503;39.928;-75.152;2022-07-23T06:48:36;101338.19;;;32.94;44.68
56632;BME280;42503;39.928;-75.152;2022-07-23T06:50:38;101338.19;;;32.94;44.63
56632;BME280;42503;39.928;-75.152;2022-07-23T06:52:39;101343.03;;;32.93;44.46
56632;BME280;42503;39.928;-75.152;2022-07-23T06:54:40;101339.38;;;32.93;44.31
56632;BME280;42503;39.928;-75.152;2022-07-23T06:56:45;101332.41;;;32.90;44.03
56632;BME280;42503;39.928;-75.152;2022-07-23T06:58:46;101338.19;;;32.94;44.47
56632;BME280;42503;39.928;-75.152;2022-07-23T07:00:47;101349.53;;;32.94;44.67
56632;BME280;42503;39.928;-75.152;2022-07-23T07:02:49;101335.34;;;32.94;45.01
56632;BME280;42503;39.928;-75.152;2022-07-23T07:04:50;101337.38;;;32.93;44.80
56632;BME280;42503;39.928;-75.152;2022-07-23T07:06:51;101332.41;;;32.90;45.15
56632;BME280;42503;39.928;-75.152;2022-07-23T07:08:53;101332.53;;;32.94;44.89
56632;BME280;42503;39.928;-75.152;2022-07-23T07:10:54;101339.38;;;32.93;45.08
56632;BME280;42503;39.928;-75.152;2022-07-23T07:12:55;101342.22;;;32.93;44.81
56632;BME280;42503;39.928;-75.152;2022-07-23T07:14:57;101342.22;;;32.93;44.88
56632;BME280;42503;39.928;-75.152;2022-07-23T07:16:58;101335.72;;;32.92;44.68
56632;BME280;42503;39.928;-75.152;2022-07-23T07:18:59;101342.22;;;32.93;44.57
56632;BME280;42503;39.928;-75.152;2022-07-23T07:21:01;101338.56;;;32.92;44.75
56632;BME280;42503;39.928;-75.152;2022-07-23T07:23:05;101342.22;;;32.93;44.70
56632;BME280;42503;39.928;-75.152;2022-07-23T07:25:09;101343.03;;;32.93;45.18
56632;BME280;42503;39.928;-75.152;2022-07-23T07:27:10;101342.22;;;32.93;44.77
56632;BME280;42503;39.928;-75.152;2022-07-23T07:29:12;101348.72;;;32.93;45.01
56632;BME280;42503;39.928;-75.152;2022-07-23T07:31:16;101342.88;;;32.89;44.98
56632;BME280;42503;39.928;-75.152;2022-07-23T07:33:17;101347.72;;;32.89;44.95
56632;BME280;42503;39.928;-75.152;2022-07-23T07:35:21;101356.38;;;32.93;44.97
56632;BME280;42503;39.928;-75.152;2022-07-23T07:37:25;101355.94;;;32.91;44.76
56632;BME280;42503;39.928;-75.152;2022-07-23T07:39:27;101357.56;;;32.92;45.20
56632;BME280;42503;39.928;-75.152;2022-07-23T07:41:31;101356.75;;;32.91;44.97
56632;BME280;42503;39.928;-75.152;2022-07-23T07:43:32;101349.06;;;32.92;44.95
56632;BME280;42503;39.928;-75.152;2022-07-23T07:45:33;101362.41;;;32.91;44.66
56632;BME280;42503;39.928;-75.152;2022-07-23T07:47:35;101355.78;;;32.87;44.43
56632;BME280;42503;39.928;-75.152;2022-07-23T07:49:36;101367.28;;;32.91;44.34
56632;BME280;42503;39.928;-75.152;2022-07-23T07:51:37;101369.25;;;32.90;44.71
56632;BME280;42503;39.928;-75.152;2022-07-23T07:53:39;101372.94;;;32.91;44.42
56632;BME280;42503;39.928;-75.152;2022-07-23T07:55:40;101371.22;;;32.89;44.42
56632;BME280;42503;39.928;-75.152;2022-07-23T07:57:42;101371.22;;;32.89;44.74
56632;BME280;42503;39.928;-75.152;2022-07-23T07:59:43;101377.75;;;32.90;44.73
56632;BME280;42503;39.928;-75.152;2022-07-23T08:01:47;101387.41;;;32.89;44.72
56632;BME280;42503;39.928;-75.152;2022-07-23T08:03:49;101376.91;;;32.89;44.98
56632;BME280;42503;39.928;-75.152;2022-07-23T08:05:50;101382.56;;;32.89;44.71
56632;BME280;42503;39.928;-75.152;2022-07-23T08:07:51;101393.91;;;32.89;44.65
56632;BME280;42503;39.928;-75.152;2022-07-23T08:10:04;101389.09;;;32.90;44.63
56632;BME280;42503;39.928;-75.152;2022-07-23T08:12:09;101393.91;;;32.89;44.67
56632;BME280;42503;39.928;-75.152;2022-07-23T08:14:13;101397.94;;;32.88;44.46
56632;BME280;42503;39.928;-75.152;2022-07-23T08:16:15;101384.81;;;32.84;44.90
56632;BME280;42503;39.928;-75.152;2022-07-23T08:18:17;101394.28;;;32.88;44.82
56632;BME280;42503;39.928;-75.152;2022-07-23T08:20:22;101408.44;;;32.88;44.48
56632;BME280;42503;39.928;-75.152;2022-07-23T08:22:23;101403.59;;;32.88;44.74
56632;BME280;42503;39.928;-75.152;2022-07-23T08:24:25;101402.78;;;32.88;44.89
56632;BME280;42503;39.928;-75.152;2022-07-23T08:26:29;101390.84;;;32.82;45.11
56632;BME280;42503;39.928;-75.152;2022-07-23T08:28:33;101401.94;;;32.87;44.81
56632;BME280;42503;39.928;-75.152;2022-07-23T08:30:35;101399.13;;;32.87;44.86
56632;BME280;42503;39.928;-75.152;2022-07-23T08:35:06;101400.75;;;32.88;44.65
56632;BME280;42503;39.928;-75.152;2022-07-23T08:37:07;101410.09;;;32.89;44.57
56632;BME280;42503;39.928;-75.152;2022-07-23T08:39:09;101403.59;;;32.88;44.86
56632;BME280;42503;39.928;-75.152;2022-07-23T08:41:14;101401.94;;;32.87;45.03
56632;BME280;42503;39.928;-75.152;2022-07-23T08:43:32;101409.25;;;32.88;45.15
56632;BME280;42503;39.928;-75.152;2022-07-23T08:45:41;101395.19;;;32.80;45.30
56632;BME280;42503;39.928;-75.152;2022-07-23T08:47:43;101396.03;;;32.80;45.47
56632;BME280;42503;39.928;-75.152;2022-07-23T08:49:46;101414.47;;;32.86;45.51
56632;BME280;42503;39.928;-75.152;2022-07-23T08:51:48;101418.94;;;32.87;45.86
56632;BME280;42503;39.928;-75.152;2022-07-23T08:53:49;101412.47;;;32.87;45.47
56632;BME280;42503;39.928;-75.152;2022-07-23T08:55:53;101420.13;;;32.86;45.47
56632;BME280;42503;39.928;-75.152;2022-07-23T08:57:55;101406.66;;;32.83;45.54
56632;BME280;42503;39.928;-75.152;2022-07-23T08:59:57;101416.47;;;32.86;45.74
56632;BME280;42503;39.928;-75.152;2022-07-23T09:01:58;101412.81;;;32.85;45.49
56632;BME280;42503;39.928;-75.152;2022-07-23T09:04:01;101408.22;;;32.81;45.65
56632;BME280;42503;39.928;-75.152;2022-07-23T09:06:05;101420.84;;;32.83;45.42
56632;BME280;42503;39.928;-75.152;2022-07-23T09:08:12;101418.00;;;32.83;45.29
56632;BME280;42503;39.928;-75.152;2022-07-23T09:10:13;101427.81;;;32.86;45.40
56632;BME280;42503;39.928;-75.152;2022-07-23T09:12:15;101425.31;;;32.84;45.65
56632;BME280;42503;39.928;-75.152;2022-07-23T09:14:19;101422.03;;;32.82;45.35
56632;BME280;42503;39.928;-75.152;2022-07-23T09:16:36;101429.34;;;32.83;45.58
56632;BME280;42503;39.928;-75.152;2022-07-23T09:18:48;101431.72;;;32.81;45.22
56632;BME280;42503;39.928;-75.152;2022-07-23T09:20:56;101424.50;;;32.84;45.23
56632;BME280;42503;39.928;-75.152;2022-07-23T09:23:05;101430.16;;;32.84;45.48
56632;BME280;42503;39.928;-75.152;2022-07-23T09:25:18;101440.69;;;32.83;45.28
56632;BME280;42503;39.928;-75.152;2022-07-23T09:27:24;101431.00;;;32.84;45.10
56632;BME280;42503;39.928;-75.152;2022-07-23T09:29:55;101440.69;;;32.83;45.23
56632;BME280;42503;39.928;-75.152;2022-07-23T09:31:59;101444.69;;;32.82;45.25
56632;BME280;42503;39.928;-75.152;2022-07-23T09:34:13;101439.72;;;32.79;45.07
56632;BME280;42503;39.928;-75.152;2022-07-23T09:36:15;101438.19;;;32.82;45.44
56632;BME280;42503;39.928;-75.152;2022-07-23T09:38:18;101451.19;;;32.83;45.35
56632;BME280;42503;39.928;-75.152;2022-07-23T09:40:19;101450.38;;;32.82;45.26
56632;BME280;42503;39.928;-75.152;2022-07-23T09:42:23;101444.69;;;32.82;45.36
56632;BME280;42503;39.928;-75.152;2022-07-23T09:44:25;101454.38;;;32.81;45.83
56632;BME280;42503;39.928;-75.152;2022-07-23T09:46:29;101456.03;;;32.82;45.99
56632;BME280;42503;39.928;-75.152;2022-07-23T09:48:30;101448.72;;;32.81;45.92
56632;BME280;42503;39.928;-75.152;2022-07-23T09:50:33;101448.72;;;32.81;46.18
56632;BME280;42503;39.928;-75.152;2022-07-23T09:52:36;101458.38;;;32.80;45.95
56632;BME280;42503;39.928;-75.152;2022-07-23T09:54:43;101455.53;;;32.80;45.99
56632;BME280;42503;39.928;-75.152;2022-07-23T09:56:44;101472.53;;;32.80;45.83
56632;BME280;42503;39.928;-75.152;2022-07-23T09:58:49;101477.06;;;32.81;46.16
56632;BME280;42503;39.928;-75.152;2022-07-23T10:01:03;101464.25;;;32.75;46.09
56632;BME280;42503;39.928;-75.152;2022-07-23T10:03:08;101464.03;;;32.80;45.79
56632;BME280;42503;39.928;-75.152;2022-07-23T10:05:11;101468.06;;;32.79;45.83
56632;BME280;42503;39.928;-75.152;2022-07-23T10:07:17;101473.25;;;32.77;45.73
56632;BME280;42503;39.928;-75.152;2022-07-23T10:09:27;101470.44;;;32.77;45.56
56632;BME280;42503;39.928;-75.152;2022-07-23T10:11:30;101476.09;;;32.77;45.32
56632;BME280;42503;39.928;-75.152;2022-07-23T10:13:32;101476.09;;;32.77;45.38
56632;BME280;42503;39.928;-75.152;2022-07-23T10:15:54;101480.94;;;32.77;45.71
56632;BME280;42503;39.928;-75.152;2022-07-23T10:17:55;101485.78;;;32.76;45.42
56632;BME280;42503;39.928;-75.152;2022-07-23T10:19:57;101478.44;;;32.75;45.59
56632;BME280;42503;39.928;-75.152;2022-07-23T10:22:18;101475.97;;;32.74;45.40
56632;BME280;42503;39.928;-75.152;2022-07-23T10:27:09;101488.94;;;32.75;45.65
56632;BME280;42503;39.928;-75.152;2022-07-23T10:36:19;101489.53;;;32.68;45.82
56632;BME280;42503;39.928;-75.152;2022-07-23T10:38:40;101501.09;;;32.75;45.89